Time;durP1;ratioP1;P1;durP2;ratioP2;P2;SDS_P1;SDS_P2;PMS_P1;PMS_P2;Temp;Humidity;BMP_temperature;BMP_pressure;BME280_temperature;BME280_humidity;BME280_pressure;Samples;Min_cycle;Max_cycle;Signal;HPM_P1;HPM_P2
2022/01/07 00:01:03;;;;;;;20.50;11.60;;;-1.80;99.90;;;-3.49;99.72;98344.84;5055214;28;20438;-68
2022/01/07 00:03:31;;;;;;;22.77;11.60;;;-1.70;99.90;;;-3.51;99.70;98340.63;5054917;28;20437;-68
2022/01/07 00:06:01;;;;;;;19.07;11.90;;;-1.80;99.90;;;-3.61;99.72;98329.94;5058719;28;20782;-67
2022/01/07 00:08:29;;;;;;;26.47;13.00;;;-1.80;99.90;;;-3.64;99.66;98330.19;5076765;28;20917;-67
2022/01/07 00:10:56;;;;;;;18.33;11.70;;;-1.90;99.90;;;-3.66;99.76;98330.28;5058881;28;20438;-68
2022/01/07 00:13:24;;;;;;;20.30;12.43;;;-1.80;99.90;;;-3.64;99.83;98333.69;5076163;28;20440;-68
2022/01/07 00:15:54;;;;;;;15.90;11.03;;;-1.90;99.90;;;-3.68;99.64;98328.75;5058687;28;20507;-69
2022/01/07 00:18:21;;;;;;;16.53;11.00;;;-1.90;99.90;;;-3.61;99.77;98325.50;5075445;28;20434;-68
2022/01/07 00:20:48;;;;;;;18.27;11.40;;;-1.90;99.90;;;-3.67;99.75;98327.78;5076956;28;20507;-68
2022/01/07 00:23:16;;;;;;;17.17;11.20;;;-1.90;99.90;;;-3.72;99.83;98326.31;5076690;28;20439;-71
2022/01/07 00:25:43;;;;;;;19.50;11.30;;;-1.90;99.90;;;-3.81;99.67;98319.09;5076687;28;20439;-70
2022/01/07 00:28:10;;;;;;;19.50;11.20;;;-2.00;99.90;;;-3.76;99.99;98322.22;5076968;28;20445;-69
2022/01/07 00:30:38;;;;;;;18.70;11.07;;;-2.00;99.90;;;-3.76;99.64;98327.50;5076920;28;20528;-70
2022/01/07 00:33:06;;;;;;;14.50;10.87;;;-2.00;99.90;;;-3.80;99.53;98312.88;5058603;28;20472;-70
2022/01/07 00:35:34;;;;;;;16.10;11.60;;;-2.00;99.90;;;-3.72;98.94;98310.47;5076498;28;20890;-68
2022/01/07 00:38:01;;;;;;;18.27;11.80;;;-2.00;99.90;;;-3.86;98.97;98294.88;5078772;28;20433;-69
2022/01/07 00:40:30;;;;;;;17.50;12.40;;;-2.00;99.90;;;-3.72;98.80;98301.72;5059018;28;20809;-68
2022/01/07 00:42:57;;;;;;;20.00;11.67;;;-2.00;99.90;;;-3.87;99.81;98299.28;5077302;28;20480;-69
2022/01/07 00:45:25;;;;;;;17.40;11.63;;;-2.10;99.90;;;-3.87;99.66;98288.72;5072420;28;20531;-68
2022/01/07 00:47:54;;;;;;;16.57;11.30;;;-2.10;99.90;;;-3.85;99.43;98297.38;5071815;28;20430;-68
2022/01/07 00:50:23;;;;;;;20.80;11.40;;;-2.10;99.90;;;-3.84;100.00;98293.75;5086908;28;20486;-69
2022/01/07 00:52:50;;;;;;;18.27;12.33;;;-2.10;99.90;;;-3.97;100.00;98292.19;5077591;28;20517;-69
2022/01/07 00:55:19;;;;;;;15.87;11.00;;;-2.20;99.90;;;-4.09;100.00;98305.34;5076063;28;20522;-69
2022/01/07 00:57:48;;;;;;;16.50;11.53;;;-2.30;99.90;;;-4.02;100.00;98301.31;5076085;28;20477;-69
2022/01/07 01:00:20;;;;;;;19.43;10.70;;;-2.40;99.90;;;-3.94;100.00;98298.09;5076437;28;20802;-68
2022/01/07 01:02:48;;;;;;;19.23;11.00;;;-2.30;99.90;;;-3.97;99.65;98297.47;5057768;28;20512;-68
2022/01/07 01:05:16;;;;;;;20.50;11.53;;;-2.30;99.90;;;-3.97;100.00;98300.94;5076402;28;20544;-69
2022/01/07 01:07:44;;;;;;;20.63;10.77;;;-2.30;99.90;;;-3.95;100.00;98304.28;5075555;28;20533;-69
2022/01/07 01:10:12;;;;;;;17.13;12.90;;;-2.20;99.90;;;-3.85;100.00;98291.25;5075734;28;20541;-70
2022/01/07 01:12:44;;;;;;;23.20;12.90;;;-2.10;99.90;;;-3.88;99.93;98302.03;5076268;28;20441;-69
2022/01/07 01:15:17;;;;;;;18.90;10.93;;;-2.10;99.90;;;-3.81;99.85;98291.84;5057472;28;20491;-69
2022/01/07 01:17:44;;;;;;;19.73;12.00;;;-2.10;99.90;;;-3.83;99.71;98294.63;5075848;28;20461;-69
2022/01/07 01:20:13;;;;;;;19.30;11.67;;;-2.10;99.90;;;-3.96;99.88;98309.72;5076056;28;20520;-69
2022/01/07 01:22:40;;;;;;;19.83;10.90;;;-2.20;99.90;;;-4.08;99.98;98317.59;5075587;28;20532;-69
2022/01/07 01:25:09;;;;;;;16.47;11.97;;;-2.30;99.90;;;-3.94;100.00;98308.66;5075303;28;20445;-69
2022/01/07 01:27:36;;;;;;;16.77;11.70;;;-2.30;99.90;;;-4.04;100.00;98302.38;5075319;28;20531;-68
2022/01/07 01:30:08;;;;;;;17.83;12.37;;;-2.30;99.90;;;-4.21;100.00;98306.25;5057567;28;20519;-68
2022/01/07 01:32:37;;;;;;;21.97;11.80;;;-2.50;99.90;;;-4.29;100.00;98288.34;5057174;28;20469;-68
2022/01/07 01:35:07;;;;;;;15.67;12.73;;;-2.50;99.90;;;-4.16;100.00;98299.69;5057314;28;20908;-69
2022/01/07 01:37:34;;;;;;;21.40;13.03;;;-2.50;99.90;;;-3.87;100.00;98301.06;5075498;28;20497;-68
2022/01/07 01:40:01;;;;;;;22.40;12.47;;;-2.30;99.90;;;-3.87;100.00;98287.88;5075207;28;20532;-70
2022/01/07 01:42:28;;;;;;;18.43;12.50;;;-2.20;99.90;;;-5.41;100.00;98060.13;5056903;28;20960;-70
2022/01/07 01:44:55;;;;;;;20.07;13.03;;;-2.20;99.90;;;-3.87;100.00;98286.09;5057052;28;20521;-70
2022/01/07 01:47:22;;;;;;;19.73;12.30;;;-2.20;99.90;;;-3.91;100.00;98287.28;5057209;28;20457;-70
2022/01/07 01:49:50;;;;;;;14.80;11.77;;;-2.20;99.90;;;-3.81;100.00;98265.44;5057225;28;20468;-70
2022/01/07 01:52:17;;;;;;;24.63;12.67;;;-2.10;99.90;;;-3.72;100.00;98273.50;5075313;28;20440;-69
2022/01/07 01:54:44;;;;;;;22.23;13.03;;;-2.10;99.90;;;-3.78;100.00;98266.06;5056715;28;20473;-69
2022/01/07 01:57:11;;;;;;;24.50;12.53;;;-2.10;99.90;;;-3.78;100.00;98239.63;5075043;28;20465;-69
2022/01/07 01:59:38;;;;;;;21.73;13.60;;;-2.00;99.90;;;-3.64;99.69;98266.78;5075373;28;20449;-69
2022/01/07 02:02:06;;;;;;;18.30;11.23;;;-1.90;99.90;;;-3.73;99.37;98258.59;5074808;28;20520;-69
2022/01/07 02:04:37;;;;;;;19.83;11.97;;;-2.00;99.90;;;-3.76;99.49;98256.22;5074646;28;20449;-68
2022/01/07 02:07:07;;;;;;;16.67;11.93;;;-2.00;99.90;;;-3.78;99.77;98255.47;5057048;28;20756;-68
2022/01/07 02:09:36;;;;;;;25.40;11.83;;;-2.00;99.90;;;-3.84;99.88;98254.16;5056846;28;21012;-69
2022/01/07 02:12:05;;;;;;;20.07;12.73;;;-2.00;99.90;;;-3.83;99.71;98257.66;5056975;28;20532;-68
2022/01/07 02:14:34;;;;;;;19.13;12.77;;;-2.10;99.90;;;-3.77;99.90;98258.97;5074693;28;20429;-69
2022/01/07 02:17:09;;;;;;;17.50;10.60;;;-2.10;99.90;;;-3.72;99.76;98255.00;5056498;28;20510;-68
2022/01/07 02:19:38;;;;;;;19.30;10.77;;;-2.00;99.90;;;-3.73;99.65;98258.59;5056705;28;20553;-68
2022/01/07 02:22:06;;;;;;;19.87;11.47;;;-2.00;99.90;;;-3.72;99.81;98251.53;5057016;28;20468;-69
2022/01/07 02:24:34;;;;;;;14.77;10.57;;;-2.00;99.90;;;-3.76;99.54;98252.75;5074412;28;21003;-69
2022/01/07 02:27:02;;;;;;;23.37;11.20;;;-2.00;99.90;;;-3.76;99.17;98245.63;5073601;28;20433;-69
2022/01/07 02:29:29;;;;;;;19.30;10.90;;;-2.00;99.90;;;-3.83;99.59;98247.09;5056046;28;20437;-69
2022/01/07 02:31:56;;;;;;;19.73;11.60;;;-2.00;99.90;;;-3.84;99.95;98240.13;5056760;28;20464;-69
2022/01/07 02:34:23;;;;;;;17.20;9.87;;;-2.00;99.90;;;-3.85;99.67;98243.72;5056568;28;20469;-69
2022/01/07 02:36:51;;;;;;;15.70;11.07;;;-2.10;99.90;;;-3.80;99.69;98238.94;5056146;28;20985;-69
2022/01/07 02:39:19;;;;;;;26.67;12.03;;;-2.10;99.90;;;-3.85;99.53;98244.56;5074318;28;20530;-69
2022/01/07 02:41:46;;;;;;;14.40;10.07;;;-2.10;99.90;;;-3.80;99.36;98236.28;5074092;28;20433;-69
2022/01/07 02:44:13;;;;;;;15.53;11.40;;;-2.10;99.90;;;-3.90;99.72;98232.66;5074128;28;20437;-69
2022/01/07 02:46:41;;;;;;;19.00;11.07;;;-2.10;99.90;;;-3.88;99.77;98223.69;5073946;28;20512;-70
2022/01/07 02:49:10;;;;;;;14.50;10.33;;;-2.10;99.90;;;-4.02;99.62;98222.13;5073898;28;20438;-69
2022/01/07 02:51:37;;;;;;;16.37;10.30;;;-2.10;99.90;;;-3.92;99.66;98231.94;5073947;28;20441;-69
2022/01/07 02:54:07;;;;;;;13.40;10.40;;;-2.10;99.90;;;-3.91;99.25;98223.91;5073885;28;20517;-69
2022/01/07 02:56:35;;;;;;;18.97;11.37;;;-2.10;99.90;;;-3.92;99.12;98232.81;5056515;28;20542;-69
2022/01/07 02:59:05;;;;;;;21.80;11.70;;;-2.10;99.90;;;-3.97;99.39;98228.81;5073882;28;20430;-69
2022/01/07 03:01:32;;;;;;;24.07;11.33;;;-2.20;99.90;;;-4.04;99.06;98217.91;5073515;28;20428;-68
2022/01/07 03:03:59;;;;;;;23.87;10.40;;;-2.20;99.90;;;-3.95;99.30;98238.28;5073674;28;20455;-68
2022/01/07 03:06:26;;;;;;;17.70;11.03;;;-2.20;99.90;;;-4.00;99.07;98230.75;5056170;28;20469;-68
2022/01/07 03:08:54;;;;;;;20.00;11.73;;;-2.20;99.90;;;-4.06;99.54;98231.19;5055777;28;20432;-68
2022/01/07 03:11:23;;;;;;;20.93;11.07;;;-2.30;99.90;;;-4.10;99.60;98218.34;5073713;28;20527;-68
2022/01/07 03:13:51;;;;;;;14.97;10.20;;;-2.30;99.90;;;-4.02;99.27;98226.53;5073793;28;20445;-68
2022/01/07 03:16:18;;;;;;;18.03;10.13;;;-2.30;99.90;;;-3.99;99.42;98224.50;5055459;28;20469;-69
2022/01/07 03:18:45;;;;;;;17.70;10.03;;;-2.30;99.90;;;-4.03;99.18;98225.69;5073794;28;20437;-68
2022/01/07 03:21:12;;;;;;;17.33;10.80;;;-2.30;99.90;;;-4.18;98.85;98219.78;5073611;28;21067;-69
2022/01/07 03:23:40;;;;;;;14.30;9.30;;;-2.40;99.30;;;-4.14;99.34;98218.59;5073611;28;20425;-68
2022/01/07 03:26:08;;;;;;;18.23;10.43;;;-2.40;99.90;;;-4.02;99.22;98224.75;5055311;28;20436;-68
2022/01/07 03:28:36;;;;;;;15.10;10.50;;;-2.30;99.90;;;-4.03;99.43;98212.47;5073583;28;20473;-68
2022/01/07 03:31:03;;;;;;;16.50;10.30;;;-2.30;99.90;;;-4.16;98.83;98209.13;5055222;28;20476;-67
2022/01/07 03:33:30;;;;;;;25.20;10.87;;;-2.40;99.90;;;-4.03;99.16;98216.94;5055182;28;20477;-67
2022/01/07 03:35:57;;;;;;;18.17;10.23;;;-2.30;99.90;;;-3.99;99.12;98213.94;5055428;28;20440;-67
2022/01/07 03:38:24;;;;;;;15.57;9.70;;;-2.30;99.90;;;-3.95;99.39;98200.50;5074706;28;20985;-68
2022/01/07 03:40:51;;;;;;;15.20;11.67;;;-2.30;99.90;;;-3.96;98.92;98194.38;5077465;28;20477;-68
2022/01/07 03:43:18;;;;;;;14.50;9.87;;;-2.20;99.90;;;-3.94;99.01;98188.97;5077233;28;20494;-68
2022/01/07 03:45:47;;;;;;;14.93;9.57;;;-2.20;99.90;;;-3.90;99.28;98190.41;5059542;28;20491;-68
2022/01/07 03:48:14;;;;;;;22.30;10.50;;;-2.20;99.90;;;-3.80;99.13;98188.75;5059132;28;20609;-68
2022/01/07 03:50:41;;;;;;;18.40;11.40;;;-2.10;99.90;;;-3.80;98.79;98185.25;5077596;28;20828;-68
2022/01/07 03:53:09;;;;;;;13.10;9.17;;;-2.10;99.90;;;-3.87;99.03;98190.19;5077525;28;20451;-68
2022/01/07 03:55:35;;;;;;;18.90;10.07;;;-2.10;99.90;;;-3.91;98.88;98181.69;5077325;28;20441;-68
2022/01/07 03:58:03;;;;;;;14.10;11.27;;;-2.10;99.90;;;-3.84;98.78;98176.75;5077178;28;20500;-68
2022/01/07 04:00:34;;;;;;;17.67;10.87;;;-2.00;99.90;;;-3.77;98.70;98172.66;5058944;28;20469;-68
2022/01/07 04:03:04;;;;;;;15.03;9.77;;;-2.00;99.90;;;-3.83;98.44;98186.34;5058869;28;20440;-67
2022/01/07 04:05:31;;;;;;;17.27;9.53;;;-2.10;98.80;;;-3.86;98.63;98187.44;5059564;28;20441;-68
2022/01/07 04:07:59;;;;;;;18.63;10.17;;;-2.00;98.80;;;-3.88;98.76;98188.50;5076990;28;20855;-69
2022/01/07 04:10:26;;;;;;;18.03;10.90;;;-2.10;99.30;;;-3.87;98.60;98184.91;5077027;28;20448;-69
2022/01/07 04:12:53;;;;;;;14.27;9.40;;;-2.10;99.40;;;-3.84;98.53;98182.88;5077194;28;20437;-69
2022/01/07 04:15:22;;;;;;;14.97;10.37;;;-2.10;99.50;;;-3.99;98.24;98163.78;5058876;28;20451;-69
2022/01/07 04:17:51;;;;;;;17.57;10.13;;;-2.10;98.50;;;-3.86;98.76;98176.03;5058954;28;20461;-69
2022/01/07 04:20:23;;;;;;;19.63;11.43;;;-2.10;99.30;;;-3.86;98.25;98178.69;5076958;28;20433;-69
2022/01/07 04:22:50;;;;;;;19.53;10.03;;;-2.10;99.10;;;-3.81;98.23;98175.66;5058860;28;20444;-68
2022/01/07 04:25:20;;;;;;;14.30;9.37;;;-2.10;98.70;;;-3.83;97.61;98183.72;5076930;28;20864;-69
2022/01/07 04:27:50;;;;;;;16.80;9.77;;;-2.10;97.80;;;-3.85;98.00;98180.34;5060153;28;20464;-69
2022/01/07 04:30:18;;;;;;;18.13;9.83;;;-2.10;97.50;;;-3.86;97.98;98189.25;5078472;28;20433;-69
2022/01/07 04:32:46;;;;;;;21.70;10.17;;;-2.10;97.40;;;-4.00;97.60;98177.94;5078863;28;20837;-68
2022/01/07 04:35:14;;;;;;;14.20;10.17;;;-2.10;96.90;;;-3.88;97.86;98188.50;5080243;28;20859;-67
2022/01/07 04:37:43;;;;;;;12.73;9.90;;;-2.10;97.20;;;-3.93;98.38;98182.75;5085154;28;20857;-68
2022/01/07 04:40:14;;;;;;;13.80;9.65;;;-2.10;98.10;;;-3.94;98.03;98197.75;5084366;28;20471;-68
2022/01/07 04:42:41;;;;;;;17.83;10.30;;;-2.10;97.80;;;-3.85;97.98;98185.63;5083674;28;20229;-68
2022/01/07 04:45:10;;;;;;;16.30;8.87;;;-2.10;98.00;;;-3.77;97.67;98191.16;5082686;28;20490;-69
2022/01/07 04:47:38;;;;;;;12.27;9.53;;;-2.10;97.30;;;-3.86;97.53;98192.72;5065071;28;20437;-68
2022/01/07 04:50:07;;;;;;;12.37;9.00;;;-2.10;96.40;;;-3.80;97.59;98191.38;5078317;28;20448;-68
2022/01/07 04:52:35;;;;;;;14.13;10.10;;;-2.10;97.50;;;-3.76;97.64;98190.19;5076298;28;20441;-69
2022/01/07 04:55:04;;;;;;;16.77;9.63;;;-2.00;97.50;;;-3.79;97.34;98194.84;5076335;28;20469;-68
2022/01/07 04:57:31;;;;;;;16.90;10.40;;;-2.00;96.80;;;-3.78;97.01;98200.03;5076434;28;20552;-68
2022/01/07 04:59:58;;;;;;;13.13;8.80;;;-2.00;96.30;;;-3.73;97.28;98200.50;5058747;28;20433;-68
2022/01/07 05:02:27;;;;;;;13.97;8.87;;;-2.00;96.90;;;-3.82;97.25;98182.75;5058480;28;20495;-68
2022/01/07 05:04:54;;;;;;;10.90;8.13;;;-2.00;97.40;;;-3.75;97.12;98181.31;5076201;28;20798;-68
2022/01/07 05:07:21;;;;;;;10.73;8.53;;;-2.00;96.50;;;-3.75;97.26;98176.03;5058045;28;20495;-67
2022/01/07 05:09:48;;;;;;;13.93;8.97;;;-2.00;96.10;;;-3.70;97.19;98183.59;5075574;28;20433;-68
2022/01/07 05:12:17;;;;;;;15.23;10.43;;;-2.00;96.70;;;-3.66;97.27;98189.47;5075571;28;20516;-68
2022/01/07 05:14:44;;;;;;;20.57;10.63;;;-1.90;96.10;;;-3.67;96.94;98179.88;5075914;28;20769;-67
2022/01/07 05:17:10;;;;;;;15.63;9.47;;;-2.00;96.20;;;-3.68;96.83;98171.09;5057393;28;20814;-67
2022/01/07 05:19:37;;;;;;;16.77;10.47;;;-1.90;96.20;;;-3.72;97.08;98162.56;5075753;28;20437;-68
2022/01/07 05:22:05;;;;;;;12.93;8.50;;;-1.90;95.90;;;-3.62;97.31;98180.34;5076131;28;20441;-68
2022/01/07 05:24:32;;;;;;;16.13;9.50;;;-1.90;95.90;;;-3.66;97.25;98178.91;5075473;28;20491;-69
2022/01/07 05:26:59;;;;;;;17.97;10.07;;;-1.90;95.80;;;-3.67;96.96;98178.06;5076081;28;20490;-69
2022/01/07 05:29:28;;;;;;;17.43;9.23;;;-1.90;96.00;;;-3.68;97.23;98175.56;5076110;28;20504;-68
2022/01/07 05:31:56;;;;;;;16.80;9.70;;;-1.90;95.80;;;-3.66;96.68;98168.34;5076516;28;20441;-68
2022/01/07 05:34:23;;;;;;;15.70;9.17;;;-1.90;95.30;;;-3.73;97.23;98168.81;5057169;28;20872;-69
2022/01/07 05:36:50;;;;;;;14.07;8.57;;;-1.90;95.20;;;-3.78;96.83;98170.97;5057483;28;20441;-69
2022/01/07 05:39:16;;;;;;;17.00;10.07;;;-2.00;95.10;;;-3.77;97.09;98177.94;5057393;28;20469;-69
2022/01/07 05:41:43;;;;;;;13.77;8.50;;;-2.00;95.50;;;-3.88;97.20;98170.88;5075008;28;20936;-66
2022/01/07 05:44:10;;;;;;;17.17;9.93;;;-2.10;95.30;;;-3.89;97.39;98169.19;5075495;28;20448;-68
2022/01/07 05:46:39;;;;;;;17.43;9.40;;;-2.10;95.70;;;-3.91;97.09;98168.47;5075272;28;20437;-68
2022/01/07 05:49:06;;;;;;;13.43;9.57;;;-2.10;95.40;;;-3.91;97.45;98159.69;5074942;28;20445;-68
2022/01/07 05:51:33;;;;;;;19.17;10.43;;;-2.10;95.70;;;-3.93;97.38;98167.75;5057091;28;20469;-68
2022/01/07 05:54:00;;;;;;;18.07;10.10;;;-2.20;96.00;;;-3.95;97.18;98161.72;5074951;28;20441;-68
2022/01/07 05:56:27;;;;;;;12.37;8.27;;;-2.20;96.20;;;-3.99;97.23;98169.06;5074797;28;20452;-68
2022/01/07 05:58:54;;;;;;;20.17;9.73;;;-2.20;95.20;;;-3.99;97.27;98171.72;5075040;28;20461;-68
2022/01/07 06:01:21;;;;;;;17.40;10.50;;;-2.20;95.90;;;-3.99;97.47;98163.78;5074837;28;20433;-68
2022/01/07 06:03:49;;;;;;;16.20;9.23;;;-2.20;96.20;;;-3.97;97.68;98162.84;5074347;28;20490;-68
2022/01/07 06:06:16;;;;;;;16.13;10.50;;;-2.20;96.10;;;-3.96;97.76;98169.78;5075332;28;20438;-79
2022/01/07 06:08:43;;;;;;;14.60;9.03;;;-2.10;97.00;;;-3.93;97.96;98172.19;5074697;28;20433;-66
2022/01/07 06:11:10;;;;;;;20.80;11.63;;;-2.10;97.80;;;-3.97;98.10;98170.75;5074499;28;20521;-66
2022/01/07 06:13:37;;;;;;;20.43;12.77;;;-2.10;98.40;;;-3.89;98.40;98176.25;5074466;28;20532;-67
2022/01/07 06:16:05;;;;;;;23.97;13.80;;;-2.10;99.80;;;-3.82;99.09;98174.84;5074111;28;20438;-73
2022/01/07 06:18:34;;;;;;;21.53;13.47;;;-2.00;99.90;;;-3.66;98.40;98186.84;5057252;28;20552;-72
2022/01/07 06:21:02;;;;;;;24.00;12.83;;;-1.90;99.90;;;-3.46;98.50;98175.50;5074581;28;20474;-71
2022/01/07 06:23:31;;;;;;;22.50;12.00;;;-1.80;99.90;;;-3.56;97.80;98177.22;5056765;28;20470;-71
2022/01/07 06:25:58;;;;;;;22.10;13.30;;;-1.80;98.10;;;-3.44;98.39;98178.88;5074418;28;20520;-71
2022/01/07 06:28:26;;;;;;;25.20;13.70;;;-1.70;99.90;;;-3.44;97.78;98178.03;5056762;28;20524;-71
2022/01/07 06:30:54;;;;;;;25.23;16.90;;;-1.70;97.70;;;-3.45;98.30;98169.25;5056359;28;20515;-73
2022/01/07 06:33:21;;;;;;;28.80;14.20;;;-1.70;98.70;;;-3.42;98.34;98165.56;5056682;28;20514;-71
2022/01/07 06:35:48;;;;;;;24.07;15.50;;;-1.60;99.90;;;-3.35;98.21;98163.25;5077368;28;20515;-69
2022/01/07 06:38:16;;;;;;;25.63;15.13;;;-1.60;99.40;;;-3.23;98.45;98158.78;5074174;28;20510;-71
2022/01/07 06:40:43;;;;;;;31.10;15.20;;;-1.50;99.90;;;-3.16;98.54;98166.09;5056393;28;20442;-71
2022/01/07 06:43:10;;;;;;;26.80;15.50;;;-1.50;99.90;;;-3.07;98.44;98164.50;5056684;28;20548;-71
2022/01/07 06:45:37;;;;;;;26.83;14.97;;;-1.40;99.90;;;-3.00;97.72;98165.69;5056769;28;20490;-73
2022/01/07 06:48:05;;;;;;;23.70;13.60;;;-1.30;98.70;;;-3.10;98.00;98171.84;5074045;28;20528;-73
2022/01/07 06:50:32;;;;;;;29.57;16.70;;;-1.30;97.50;;;-3.23;98.47;98151.69;5055945;28;20441;-74
2022/01/07 06:52:59;;;;;;;27.33;14.87;;;-1.40;98.60;;;-3.08;98.18;98162.81;5073794;28;20445;-74
2022/01/07 06:55:27;;;;;;;30.67;16.60;;;-1.30;97.70;;;-3.01;97.73;98157.88;5073573;28;20469;-74
2022/01/07 06:57:54;;;;;;;26.10;15.10;;;-1.30;98.20;;;-2.96;98.02;98160.97;5073847;28;20467;-75
2022/01/07 07:00:21;;;;;;;31.50;13.60;;;-1.20;97.30;;;-3.06;97.20;98157.41;5073657;28;20786;-75
2022/01/07 07:02:48;;;;;;;27.10;15.50;;;-1.20;96.10;;;-3.46;97.98;98090.97;5073418;28;20848;-75
2022/01/07 07:05:15;;;;;;;23.60;15.43;;;-1.20;97.20;;;-2.89;97.59;98167.44;5074789;28;20922;-75
2022/01/07 07:07:42;;;;;;;35.23;16.80;;;-1.20;96.90;;;-2.81;97.47;98174.75;5073878;28;20441;-74
2022/01/07 07:10:09;;;;;;;29.17;15.53;;;-1.10;96.80;;;-2.74;97.56;98169.78;5073929;28;20455;-73
2022/01/07 07:12:38;;;;;;;23.93;14.67;;;-1.10;97.00;;;-2.72;97.24;98170.50;5055401;28;20445;-73
2022/01/07 07:15:06;;;;;;;26.70;14.63;;;-1.10;96.80;;;-2.77;96.90;98170.03;5056186;28;20532;-74
2022/01/07 07:17:33;;;;;;;29.60;15.37;;;-1.00;94.90;;;-2.67;96.71;98176.22;5072206;28;20465;-74
2022/01/07 07:20:03;;;;;;;29.57;15.30;;;-1.00;96.30;;;-2.70;96.88;98171.22;5074160;28;20441;-74
2022/01/07 07:22:30;;;;;;;28.73;14.70;;;-1.00;95.30;;;-2.59;96.14;98163.22;5073902;28;20460;-74
2022/01/07 07:24:57;;;;;;;32.93;15.87;;;-0.90;94.40;;;-2.57;95.85;98173.69;5073971;28;20920;-75
2022/01/07 07:27:24;;;;;;;21.27;13.83;;;-0.90;94.20;;;-2.53;95.77;98177.75;5074163;28;20521;-80
2022/01/07 07:29:53;;;;;;;26.10;14.80;;;-0.80;94.40;;;-2.46;95.82;98173.59;5056684;28;20437;-82
2022/01/07 07:32:24;;;;;;;24.90;14.93;;;-0.80;93.80;;;-2.36;95.10;98173.66;5074929;28;20465;-83
2022/01/07 07:35:01;;;;;;;26.67;15.87;;;-0.70;93.40;;;-2.34;95.21;98179.69;5074497;28;20433;-82
2022/01/07 07:37:29;;;;;;;21.80;14.23;;;-0.70;93.70;;;-2.35;95.11;98174.53;5074713;28;20531;-80
2022/01/07 07:39:59;;;;;;;21.60;14.93;;;-0.60;93.60;;;-2.32;94.61;98174.25;5074481;28;20559;-82
2022/01/07 07:42:26;;;;;;;28.43;16.57;;;-0.60;92.90;;;-2.24;95.82;98173.59;5056431;28;20433;-82
2022/01/07 07:44:54;;;;;;;24.27;13.40;;;-0.60;93.70;;;-2.20;95.22;98170.56;5056217;28;20480;-80
2022/01/07 07:47:21;;;;;;;19.30;14.10;;;-0.60;93.20;;;-2.17;94.40;98167.66;5074541;28;20524;-83
2022/01/07 07:49:48;;;;;;;22.33;13.73;;;-0.50;92.70;;;-2.33;94.90;98165.50;5075540;28;20444;-80
2022/01/07 07:52:16;;;;;;;29.50;16.23;;;-0.50;92.30;;;-2.30;95.25;98167.88;5073238;28;20451;-82
2022/01/07 07:54:43;;;;;;;21.90;13.67;;;-0.60;92.60;;;-2.21;95.00;98165.41;5074658;28;20445;-81
2022/01/07 07:57:10;;;;;;;23.70;15.23;;;-0.50;93.20;;;-2.23;94.27;98164.69;5055775;28;20533;-83
2022/01/07 07:59:37;;;;;;;29.77;15.40;;;-0.50;92.20;;;-2.10;94.21;98156.56;5056746;28;20457;-83
2022/01/07 08:02:05;;;;;;;25.07;14.67;;;-0.50;92.50;;;-1.93;94.30;98141.84;5056614;28;20461;-81
2022/01/07 08:04:33;;;;;;;26.63;14.83;;;-0.40;92.60;;;-1.94;93.08;98140.19;5080621;28;20457;-82
2022/01/07 08:07:00;;;;;;;25.77;14.50;;;-0.30;90.90;;;-2.04;93.72;98141.00;5079153;28;20924;-83
2022/01/07 08:09:27;;;;;;;23.33;14.30;;;-0.40;91.40;;;-1.91;93.53;98126.66;5076910;28;20480;-83
2022/01/07 08:12:03;;;;;;;24.17;14.60;;;-0.30;91.70;;;-1.98;93.60;98128.19;5073818;28;20441;-83
2022/01/07 08:17:16;;;;;;;25.73;14.40;;;-0.20;91.50;;;-2.06;92.35;98079.34;5084951;28;20434;-83
2022/01/07 08:19:43;;;;;;;25.73;15.57;;;-0.10;90.80;;;-1.68;92.60;98134.44;5096323;28;20476;-83
2022/01/07 08:22:12;;;;;;;23.53;13.70;;;-0.10;90.70;;;-1.92;92.39;98128.50;5097041;28;20507;-84
2022/01/07 08:24:40;;;;;;;24.83;14.47;;;-0.20;89.70;;;-1.95;92.87;98135.84;5079792;28;20509;-83
2022/01/07 08:27:07;;;;;;;21.70;13.57;;;-0.30;90.40;;;-1.95;92.99;98120.81;5072933;28;20490;-84
2022/01/07 08:29:37;;;;;;;22.53;14.00;;;-0.20;90.70;;;-1.76;93.74;98124.50;5078851;28;20536;-83
2022/01/07 08:34:54;;;;;;;21.43;13.73;;;-0.20;90.50;;;-1.81;92.70;98114.31;5078467;28;20479;-83
2022/01/07 08:37:23;;;;;;;24.10;14.27;;;-0.20;91.10;;;-1.76;92.57;98109.44;5078117;28;20430;-83
2022/01/07 08:39:51;;;;;;;21.80;14.10;;;-0.10;90.50;;;-1.74;92.47;98119.91;5078180;28;20460;-84
2022/01/07 08:42:19;;;;;;;22.27;15.20;;;-0.10;90.80;;;-1.72;91.91;98113.50;5077934;28;20437;-83
2022/01/07 08:44:47;;;;;;;26.10;14.07;;;0.00;89.80;;;-1.66;91.69;98119.22;5059643;28;20441;-84
2022/01/07 08:47:14;;;;;;;23.20;15.33;;;0.00;90.00;;;-1.97;92.39;98055.69;5059633;28;20471;-84
2022/01/07 08:49:41;;;;;;;28.13;15.33;;;0.00;90.10;;;-1.56;91.66;98101.56;5076764;28;20448;-83
2022/01/07 08:52:09;;;;;;;24.83;16.37;;;0.10;89.90;;;-1.46;91.47;98096.28;5060087;28;20468;-82
2022/01/07 08:54:36;;;;;;;26.40;16.07;;;0.10;90.10;;;-1.34;91.05;98104.94;5076777;28;20473;-76
2022/01/07 08:57:04;;;;;;;19.20;13.37;;;0.30;88.10;;;-1.49;90.92;98107.16;5058016;28;20441;-77
2022/01/07 08:59:31;;;;;;;27.20;14.93;;;0.20;87.40;;;-1.47;91.86;98108.66;5057783;28;20453;-77
2022/01/07 09:01:58;;;;;;;22.97;14.80;;;0.20;88.60;;;-1.13;90.30;98110.13;5058631;28;20536;-77
2022/01/07 09:04:25;;;;;;;24.47;15.20;;;0.40;88.30;;;-1.22;89.97;98109.13;5058654;28;20494;-79
2022/01/07 09:06:52;;;;;;;24.00;14.53;;;0.40;87.10;;;-1.18;89.39;98105.22;5076895;28;20445;-69
2022/01/07 09:09:21;;;;;;;23.77;14.20;;;0.40;85.10;;;-1.25;90.60;98109.41;5076700;28;20437;-73
2022/01/07 09:11:49;;;;;;;22.97;14.90;;;0.40;87.30;;;-1.13;90.02;98107.47;5076119;28;20990;-74
2022/01/07 09:14:16;;;;;;;23.00;15.40;;;0.50;86.70;;;-1.63;89.78;98005.00;5058371;28;20834;-75
2022/01/07 09:16:43;;;;;;;21.40;13.10;;;0.50;86.20;;;-1.03;89.83;98088.91;5076001;28;20448;-75
2022/01/07 09:19:10;;;;;;;19.60;13.43;;;0.60;86.70;;;-1.03;89.84;98096.84;5076536;28;20489;-74
2022/01/07 09:21:37;;;;;;;26.53;15.10;;;0.60;85.90;;;-0.96;89.74;98089.19;5054713;28;20526;-74
2022/01/07 09:24:07;;;;;;;23.97;13.47;;;0.60;86.60;;;-1.09;89.13;98090.28;5058588;28;20848;-74
2022/01/07 09:26:36;;;;;;;22.67;14.27;;;0.60;85.30;;;-1.01;89.76;98092.25;5075804;28;20440;-74
2022/01/07 09:29:03;;;;;;;20.33;14.57;;;0.60;86.10;;;-1.45;89.25;98019.25;5075669;28;20532;-75
2022/01/07 09:31:30;;;;;;;25.00;14.60;;;0.60;84.80;;;-1.04;89.66;98076.63;5055737;28;20507;-75
2022/01/07 09:33:57;;;;;;;23.57;14.80;;;0.70;85.70;;;-0.92;89.49;98082.59;5075326;28;20993;-74
2022/01/07 09:36:24;;;;;;;30.03;17.30;;;0.70;85.30;;;-0.84;88.88;98077.44;5073475;28;20495;-75
2022/01/07 09:38:51;;;;;;;20.03;13.20;;;0.80;84.60;;;-0.76;88.06;98082.91;5075408;28;20984;-75
2022/01/07 09:41:18;;;;;;;19.87;13.97;;;0.90;83.40;;;-0.68;87.97;98084.84;5057881;28;20438;-75
2022/01/07 09:43:46;;;;;;;21.03;14.17;;;1.00;83.60;;;-0.70;87.26;98078.81;5075139;28;20429;-75
2022/01/07 09:46:15;;;;;;;21.03;13.37;;;1.00;82.40;;;-0.90;87.33;98076.19;5075194;28;20480;-74
2022/01/07 09:48:44;;;;;;;21.33;12.90;;;0.90;81.70;;;-0.64;87.24;98074.75;5058102;28;20473;-75
2022/01/07 09:51:13;;;;;;;20.57;13.97;;;0.90;82.20;;;-0.71;87.11;98077.16;5075171;28;20447;-74
2022/01/07 09:53:40;;;;;;;22.67;14.33;;;1.00;81.90;;;-0.57;86.96;98074.03;5074624;28;20468;-75
2022/01/07 09:56:08;;;;;;;21.07;13.57;;;1.10;81.80;;;-0.52;86.58;98067.50;5075025;28;20529;-75
2022/01/07 09:58:36;;;;;;;21.17;13.33;;;1.10;81.40;;;-0.63;86.28;98065.81;5057170;28;20460;-75
2022/01/07 10:01:06;;;;;;;23.57;13.70;;;1.00;81.10;;;-0.53;87.10;98055.16;5062894;28;20496;-73
2022/01/07 10:03:39;;;;;;;20.70;13.30;;;1.10;81.60;;;-0.44;86.30;98054.31;5054730;28;20438;-75
2022/01/07 10:06:22;;;;;;;25.33;15.90;;;1.20;81.10;;;-0.59;86.48;98046.81;5064621;28;20532;-73
2022/01/07 10:09:05;;;;;;;23.47;15.80;;;1.10;80.90;;;-0.52;86.53;98064.84;5070594;28;20500;-74
2022/01/07 10:11:32;;;;;;;20.57;14.00;;;1.20;81.00;;;-0.33;85.67;98055.97;5052644;28;20449;-73
2022/01/07 10:14:18;;;;;;;18.57;12.30;;;1.30;80.30;;;-0.37;85.62;98055.44;5053302;28;20777;-73
2022/01/07 10:16:52;;;;;;;22.23;13.20;;;1.20;80.20;;;-0.35;85.24;98047.31;5054544;28;20432;-73